sensor_id;sensor_type;location;lat;lon;timestamp;pressure;altitude;pressure_sealevel;temperature;humidity
3917;BME280;1973;50.518;7.318;2024-02-26T00:01:46;99002.97;;;9.09;100.00
3917;BME280;1973;50.518;7.318;2024-02-26T00:04:13;99006.50;;;9.09;100.00
3917;BME280;1973;50.518;7.318;2024-02-26T00:06:40;99003.53;;;9.11;100.00
3917;BME280;1973;50.518;7.318;2024-02-26T00:09:10;98995.28;;;9.11;100.00
3917;BME280;1973;50.518;7.318;2024-02-26T00:11:37;98980.06;;;9.03;100.00
3917;BME280;1973;50.518;7.318;2024-02-26T00:14:04;98978.16;;;9.04;100.00
3917;BME280;1973;50.518;7.318;2024-02-26T00:16:30;98970.69;;;8.99;100.00
3917;BME280;1973;50.518;7.318;2024-02-26T00:18:57;98978.59;;;8.96;100.00
3917;BME280;1973;50.518;7.318;2024-02-26T00:21:24;98983.84;;;8.97;100.00
3917;BME280;1973;50.518;7.318;2024-02-26T00:23:53;98964.03;;;8.95;100.00
3917;BME280;1973;50.518;7.318;2024-02-26T00:26:20;98976.69;;;8.96;100.00
3917;BME280;1973;50.518;7.318;2024-02-26T00:28:46;98973.69;;;8.98;100.00
3917;BME280;1973;50.518;7.318;2024-02-26T00:31:13;98979.19;;;8.98;100.00
3917;BME280;1973;50.518;7.318;2024-02-26T00:33:39;98977.25;;;8.98;100.00
3917;BME280;1973;50.518;7.318;2024-02-26T00:36:06;98972.84;;;8.97;100.00
3917;BME280;1973;50.518;7.318;2024-02-26T00:38:33;98975.00;;;8.95;100.00
3917;BME280;1973;50.518;7.318;2024-02-26T00:41:00;98971.19;;;8.96;100.00
3917;BME280;1973;50.518;7.318;2024-02-26T00:43:26;98964.03;;;8.95;100.00
3917;BME280;1973;50.518;7.318;2024-02-26T00:45:53;98969.50;;;8.95;100.00
3917;BME280;1973;50.518;7.318;2024-02-26T00:48:19;98971.19;;;8.96;100.00
3917;BME280;1973;50.518;7.318;2024-02-26T00:50:46;98965.47;;;8.98;100.00
3917;BME280;1973;50.518;7.318;2024-02-26T00:53:13;98969.00;;;8.98;100.00
3917;BME280;1973;50.518;7.318;2024-02-26T00:55:39;98968.22;;;8.98;100.00
3917;BME280;1973;50.518;7.318;2024-02-26T00:58:06;98961.03;;;8.97;100.00
3917;BME280;1973;50.518;7.318;2024-02-26T01:00:32;98960.78;;;8.98;100.00
3917;BME280;1973;50.518;7.318;2024-02-26T01:02:59;98965.47;;;8.98;100.00
3917;BME280;1973;50.518;7.318;2024-02-26T01:05:26;98954.41;;;8.93;100.00
3917;BME280;1973;50.518;7.318;2024-02-26T01:07:53;98961.22;;;8.90;100.00
3917;BME280;1973;50.518;7.318;2024-02-26T01:10:20;98952.38;;;8.88;100.00
3917;BME280;1973;50.518;7.318;2024-02-26T01:12:46;98949.31;;;8.85;100.00
3917;BME280;1973;50.518;7.318;2024-02-26T01:15:14;98940.75;;;8.81;100.00
3917;BME280;1973;50.518;7.318;2024-02-26T01:17:41;98929.22;;;8.79;100.00
3917;BME280;1973;50.518;7.318;2024-02-26T01:20:08;98944.50;;;8.75;100.00
3917;BME280;1973;50.518;7.318;2024-02-26T01:22:35;98942.75;;;8.69;100.00
3917;BME280;1973;50.518;7.318;2024-02-26T01:25:02;98952.06;;;8.68;100.00
3917;BME280;1973;50.518;7.318;2024-02-26T01:27:29;98966.34;;;8.70;100.00
3917;BME280;1973;50.518;7.318;2024-02-26T01:29:55;98970.78;;;8.71;100.00
3917;BME280;1973;50.518;7.318;2024-02-26T01:32:22;98972.78;;;8.75;100.00
3917;BME280;1973;50.518;7.318;2024-02-26T01:34:48;98968.19;;;8.81;100.00
3917;BME280;1973;50.518;7.318;2024-02-26T01:37:15;98953.97;;;8.84;100.00
3917;BME280;1973;50.518;7.318;2024-02-26T01:39:41;98951.81;;;8.86;100.00
3917;BME280;1973;50.518;7.318;2024-02-26T01:42:08;98946.91;;;8.88;100.00
3917;BME280;1973;50.518;7.318;2024-02-26T01:44:35;98946.41;;;8.91;100.00
3917;BME280;1973;50.518;7.318;2024-02-26T01:47:01;98934.94;;;8.94;100.00
3917;BME280;1973;50.518;7.318;2024-02-26T01:49:29;98932.69;;;8.91;100.00
3917;BME280;1973;50.518;7.318;2024-02-26T01:51:57;98931.03;;;8.90;100.00
3917;BME280;1973;50.518;7.318;2024-02-26T01:54:25;98923.28;;;8.87;100.00
3917;BME280;1973;50.518;7.318;2024-02-26T01:56:52;98921.66;;;8.86;100.00
3917;BME280;1973;50.518;7.318;2024-02-26T01:59:19;98926.53;;;8.84;100.00
3917;BME280;1973;50.518;7.318;2024-02-26T02:01:48;98923.59;;;8.91;100.00
3917;BME280;1973;50.518;7.318;2024-02-26T02:04:18;98919.03;;;8.96;100.00
3917;BME280;1973;50.518;7.318;2024-02-26T02:06:45;98919.13;;;9.01;100.00
3917;BME280;1973;50.518;7.318;2024-02-26T02:09:12;98919.47;;;9.05;100.00
3917;BME280;1973;50.518;7.318;2024-02-26T02:11:39;98922.53;;;9.08;100.00
3917;BME280;1973;50.518;7.318;2024-02-26T02:14:06;98926.34;;;9.07;100.00
3917;BME280;1973;50.518;7.318;2024-02-26T02:16:33;98928.34;;;9.12;100.00
3917;BME280;1973;50.518;7.318;2024-02-26T02:19:00;98924.78;;;9.11;100.00
3917;BME280;1973;50.518;7.318;2024-02-26T02:21:27;98935.00;;;9.16;100.00
3917;BME280;1973;50.518;7.318;2024-02-26T02:23:53;98944.63;;;9.18;100.00
3917;BME280;1973;50.518;7.318;2024-02-26T02:26:20;98954.44;;;9.14;100.00
3917;BME280;1973;50.518;7.318;2024-02-26T02:28:47;98959.84;;;9.09;100.00
3917;BME280;1973;50.518;7.318;2024-02-26T02:31:15;98972.78;;;9.09;100.00
3917;BME280;1973;50.518;7.318;2024-02-26T02:33:42;98978.50;;;9.07;100.00
3917;BME280;1973;50.518;7.318;2024-02-26T02:36:09;98965.53;;;9.03;100.00
3917;BME280;1973;50.518;7.318;2024-02-26T02:38:37;98977.56;;;9.02;100.00
3917;BME280;1973;50.518;7.318;2024-02-26T02:41:04;98972.91;;;9.02;100.00
3917;BME280;1973;50.518;7.318;2024-02-26T02:43:31;98963.28;;;9.00;100.00
3917;BME280;1973;50.518;7.318;2024-02-26T02:45:58;98956.44;;;9.02;100.00
3917;BME280;1973;50.518;7.318;2024-02-26T02:48:24;98962.78;;;9.03;100.00
3917;BME280;1973;50.518;7.318;2024-02-26T02:50:52;98957.56;;;9.01;100.00
3917;BME280;1973;50.518;7.318;2024-02-26T02:53:18;98954.16;;;8.94;100.00
3917;BME280;1973;50.518;7.318;2024-02-26T02:55:45;98962.88;;;8.91;100.00
3917;BME280;1973;50.518;7.318;2024-02-26T02:58:11;98958.38;;;8.85;100.00
3917;BME280;1973;50.518;7.318;2024-02-26T03:00:38;98969.34;;;8.85;100.00
3917;BME280;1973;50.518;7.318;2024-02-26T03:03:04;98973.69;;;8.81;100.00
3917;BME280;1973;50.518;7.318;2024-02-26T03:05:31;98974.19;;;8.78;100.00
3917;BME280;1973;50.518;7.318;2024-02-26T03:07:58;98963.44;;;8.76;100.00
3917;BME280;1973;50.518;7.318;2024-02-26T03:10:24;98959.06;;;8.75;100.00
3917;BME280;1973;50.518;7.318;2024-02-26T03:12:51;98962.63;;;8.76;100.00
3917;BME280;1973;50.518;7.318;2024-02-26T03:15:17;98966.34;;;8.70;100.00
3917;BME280;1973;50.518;7.318;2024-02-26T03:17:44;98969.69;;;8.72;100.00
3917;BME280;1973;50.518;7.318;2024-02-26T03:20:11;98970.19;;;8.69;100.00
3917;BME280;1973;50.518;7.318;2024-02-26T03:22:39;98972.91;;;8.69;100.00
3917;BME280;1973;50.518;7.318;2024-02-26T03:25:06;98977.84;;;8.67;100.00
3917;BME280;1973;50.518;7.318;2024-02-26T03:27:33;98977.22;;;8.65;100.00
3917;BME280;1973;50.518;7.318;2024-02-26T03:30:00;98983.00;;;8.63;100.00
3917;BME280;1973;50.518;7.318;2024-02-26T03:32:26;98980.97;;;8.59;100.00
3917;BME280;1973;50.518;7.318;2024-02-26T03:34:53;98971.50;;;8.50;100.00
3917;BME280;1973;50.518;7.318;2024-02-26T03:37:22;98971.06;;;8.41;100.00
3917;BME280;1973;50.518;7.318;2024-02-26T03:39:48;98976.28;;;8.43;100.00
3917;BME280;1973;50.518;7.318;2024-02-26T03:42:15;98970.81;;;8.43;100.00
3917;BME280;1973;50.518;7.318;2024-02-26T03:44:43;98967.16;;;8.37;100.00
3917;BME280;1973;50.518;7.318;2024-02-26T03:47:09;98977.28;;;8.37;100.00
3917;BME280;1973;50.518;7.318;2024-02-26T03:49:36;98969.06;;;8.37;100.00
3917;BME280;1973;50.518;7.318;2024-02-26T03:52:03;98977.28;;;8.37;100.00
3917;BME280;1973;50.518;7.318;2024-02-26T03:54:29;98978.63;;;8.34;100.00
3917;BME280;1973;50.518;7.318;2024-02-26T03:56:56;98989.59;;;8.34;100.00
3917;BME280;1973;50.518;7.318;2024-02-26T03:59:22;98990.31;;;8.29;100.00
3917;BME280;1973;50.518;7.318;2024-02-26T04:01:51;98990.78;;;8.26;100.00
3917;BME280;1973;50.518;7.318;2024-02-26T04:04:17;98989.09;;;8.25;100.00
3917;BME280;1973;50.518;7.318;2024-02-26T04:06:45;98993.53;;;8.26;100.00
3917;BME280;1973;50.518;7.318;2024-02-26T04:09:15;98993.69;;;8.20;100.00
3917;BME280;1973;50.518;7.318;2024-02-26T04:11:42;98996.66;;;8.18;100.00
3917;BME280;1973;50.518;7.318;2024-02-26T04:14:11;98998.47;;;8.13;100.00
3917;BME280;1973;50.518;7.318;2024-02-26T04:16:38;99000.94;;;8.14;100.00
3917;BME280;1973;50.518;7.318;2024-02-26T04:19:05;98988.56;;;8.12;100.00
3917;BME280;1973;50.518;7.318;2024-02-26T04:21:34;98991.81;;;8.09;100.00
3917;BME280;1973;50.518;7.318;2024-02-26T04:24:00;98984.66;;;8.08;100.00
3917;BME280;1973;50.518;7.318;2024-02-26T04:26:29;98996.94;;;8.05;100.00
3917;BME280;1973;50.518;7.318;2024-02-26T04:28:56;98992.28;;;8.06;100.00
3917;BME280;1973;50.518;7.318;2024-02-26T04:31:23;98985.38;;;8.03;100.00
3917;BME280;1973;50.518;7.318;2024-02-26T04:33:49;98998.59;;;8.06;100.00
3917;BME280;1973;50.518;7.318;2024-02-26T04:36:16;98989.78;;;8.04;100.00
3917;BME280;1973;50.518;7.318;2024-02-26T04:38:44;98984.31;;;8.04;100.00
3917;BME280;1973;50.518;7.318;2024-02-26T04:41:10;98988.13;;;8.03;100.00
3917;BME280;1973;50.518;7.318;2024-02-26T04:43:38;98990.28;;;8.01;100.00
3917;BME280;1973;50.518;7.318;2024-02-26T04:46:10;98991.34;;;8.00;100.00
3917;BME280;1973;50.518;7.318;2024-02-26T04:48:37;98993.03;;;8.01;100.00
3917;BME280;1973;50.518;7.318;2024-02-26T04:51:05;98988.00;;;7.98;100.00
3917;BME280;1973;50.518;7.318;2024-02-26T04:53:31;98996.84;;;8.00;100.00
3917;BME280;1973;50.518;7.318;2024-02-26T04:55:58;98994.09;;;8.00;100.00
3917;BME280;1973;50.518;7.318;2024-02-26T04:58:24;99001.00;;;8.03;100.00
3917;BME280;1973;50.518;7.318;2024-02-26T05:00:51;99008.97;;;8.04;100.00
3917;BME280;1973;50.518;7.318;2024-02-26T05:03:17;99005.41;;;8.04;100.00
3917;BME280;1973;50.518;7.318;2024-02-26T05:05:44;99005.06;;;8.00;100.00
3917;BME280;1973;50.518;7.318;2024-02-26T05:08:11;99007.19;;;7.98;100.00
3917;BME280;1973;50.518;7.318;2024-02-26T05:10:38;99010.19;;;7.97;100.00
3917;BME280;1973;50.518;7.318;2024-02-26T05:13:07;99008.53;;;7.96;100.00
3917;BME280;1973;50.518;7.318;2024-02-26T05:15:34;99011.03;;;7.97;100.00
3917;BME280;1973;50.518;7.318;2024-02-26T05:18:01;99009.59;;;7.95;100.00
3917;BME280;1973;50.518;7.318;2024-02-26T05:20:28;99009.84;;;7.93;100.00
3917;BME280;1973;50.518;7.318;2024-02-26T05:22:55;99011.75;;;7.93;100.00
3917;BME280;1973;50.518;7.318;2024-02-26T05:25:21;99009.50;;;7.90;100.00
3917;BME280;1973;50.518;7.318;2024-02-26T05:27:48;99006.16;;;7.88;100.00
3917;BME280;1973;50.518;7.318;2024-02-26T05:30:14;99014.38;;;7.88;100.00
3917;BME280;1973;50.518;7.318;2024-02-26T05:32:41;99007.47;;;7.85;100.00
3917;BME280;1973;50.518;7.318;2024-02-26T05:35:08;99004.75;;;7.85;100.00
3917;BME280;1973;50.518;7.318;2024-02-26T05:37:35;99007.97;;;7.82;100.00
3917;BME280;1973;50.518;7.318;2024-02-26T05:40:01;99010.72;;;7.82;100.00
3917;BME280;1973;50.518;7.318;2024-02-26T05:42:30;99009.66;;;7.83;100.00
3917;BME280;1973;50.518;7.318;2024-02-26T05:44:57;99015.69;;;7.85;100.00
3917;BME280;1973;50.518;7.318;2024-02-26T05:47:24;99018.09;;;7.81;100.00
3917;BME280;1973;50.518;7.318;2024-02-26T05:49:50;99023.34;;;7.83;100.00
3917;BME280;1973;50.518;7.318;2024-02-26T05:52:17;99023.56;;;7.81;100.00
3917;BME280;1973;50.518;7.318;2024-02-26T05:54:44;99017.25;;;7.81;100.00
3917;BME280;1973;50.518;7.318;2024-02-26T05:57:10;99022.72;;;7.81;100.00
3917;BME280;1973;50.518;7.318;2024-02-26T05:59:37;99025.97;;;7.78;100.00
3917;BME280;1973;50.518;7.318;2024-02-26T06:02:04;99023.78;;;7.80;100.00
3917;BME280;1973;50.518;7.318;2024-02-26T06:04:30;99021.66;;;7.82;100.00
3917;BME280;1973;50.518;7.318;2024-02-26T06:06:57;99024.91;;;7.79;100.00
3917;BME280;1973;50.518;7.318;2024-02-26T06:09:24;99029.53;;;7.78;100.00
3917;BME280;1973;50.518;7.318;2024-02-26T06:11:50;99040.84;;;7.82;100.00
3917;BME280;1973;50.518;7.318;2024-02-26T06:14:17;99029.88;;;7.82;100.00
3917;BME280;1973;50.518;7.318;2024-02-26T06:16:44;99039.78;;;7.83;100.00
3917;BME280;1973;50.518;7.318;2024-02-26T06:19:11;99036.19;;;7.82;100.00
3917;BME280;1973;50.518;7.318;2024-02-26T06:21:39;99041.91;;;7.81;100.00
3917;BME280;1973;50.518;7.318;2024-02-26T06:24:06;99042.03;;;7.74;100.00
3917;BME280;1973;50.518;7.318;2024-02-26T06:26:32;99042.75;;;7.70;100.00
3917;BME280;1973;50.518;7.318;2024-02-26T06:29:00;99050.75;;;7.71;100.00
3917;BME280;1973;50.518;7.318;2024-02-26T06:31:26;99049.06;;;7.70;100.00
3917;BME280;1973;50.518;7.318;2024-02-26T06:33:54;99044.44;;;7.71;100.00
3917;BME280;1973;50.518;7.318;2024-02-26T06:36:22;99060.59;;;7.72;100.00
3917;BME280;1973;50.518;7.318;2024-02-26T06:38:49;99061.34;;;7.68;100.00
3917;BME280;1973;50.518;7.318;2024-02-26T06:41:15;99062.19;;;7.68;100.00
3917;BME280;1973;50.518;7.318;2024-02-26T06:43:42;99062.91;;;7.64;100.00
3917;BME280;1973;50.518;7.318;2024-02-26T06:46:08;99071.47;;;7.67;100.00
3917;BME280;1973;50.518;7.318;2024-02-26T06:48:35;99068.47;;;7.69;100.00
3917;BME280;1973;50.518;7.318;2024-02-26T06:51:03;99074.44;;;7.66;100.00
3917;BME280;1973;50.518;7.318;2024-02-26T06:53:30;99079.31;;;7.64;100.00
3917;BME280;1973;50.518;7.318;2024-02-26T06:55:57;99081.59;;;7.67;100.00
3917;BME280;1973;50.518;7.318;2024-02-26T06:58:23;99081.59;;;7.67;100.00
3917;BME280;1973;50.518;7.318;2024-02-26T07:00:50;99089.31;;;7.70;100.00
3917;BME280;1973;50.518;7.318;2024-02-26T07:03:17;99089.09;;;7.71;100.00
3917;BME280;1973;50.518;7.318;2024-02-26T07:05:43;99090.28;;;7.75;100.00
3917;BME280;1973;50.518;7.318;2024-02-26T07:08:12;99097.16;;;7.78;100.00
3917;BME280;1973;50.518;7.318;2024-02-26T07:10:38;99094.22;;;7.79;100.00
3917;BME280;1973;50.518;7.318;2024-02-26T07:13:05;99091.47;;;7.79;100.00
3917;BME280;1973;50.518;7.318;2024-02-26T07:15:32;99100.84;;;7.83;100.00
3917;BME280;1973;50.518;7.318;2024-02-26T07:17:59;99109.41;;;7.87;100.00
3917;BME280;1973;50.518;7.318;2024-02-26T07:20:30;99110.59;;;7.91;100.00
3917;BME280;1973;50.518;7.318;2024-02-26T07:22:57;99110.16;;;7.94;100.00
3917;BME280;1973;50.518;7.318;2024-02-26T07:25:24;99111.31;;;7.98;100.00
3917;BME280;1973;50.518;7.318;2024-02-26T07:27:50;99117.41;;;8.00;100.00
3917;BME280;1973;50.518;7.318;2024-02-26T07:30:17;99121.81;;;8.01;100.00
3917;BME280;1973;50.518;7.318;2024-02-26T07:32:44;99118.81;;;8.03;100.00
3917;BME280;1973;50.518;7.318;2024-02-26T07:35:16;99120.72;;;8.02;100.00
3917;BME280;1973;50.518;7.318;2024-02-26T07:37:44;99123.44;;;8.02;100.00
3917;BME280;1973;50.518;7.318;2024-02-26T07:40:10;99119.41;;;8.05;100.00
3917;BME280;1973;50.518;7.318;2024-02-26T07:42:37;99126.81;;;8.04;100.00
3917;BME280;1973;50.518;7.318;2024-02-26T07:45:04;99122.66;;;8.02;100.00
3917;BME280;1973;50.518;7.318;2024-02-26T07:47:31;99130.59;;;8.03;100.00
3917;BME280;1973;50.518;7.318;2024-02-26T07:49:57;99124.91;;;8.05;100.00
3917;BME280;1973;50.518;7.318;2024-02-26T07:52:24;99124.91;;;8.05;100.00
3917;BME280;1973;50.518;7.318;2024-02-26T07:54:51;99128.69;;;8.04;100.00
3917;BME280;1973;50.518;7.318;2024-02-26T07:57:17;99131.66;;;8.02;100.00
3917;BME280;1973;50.518;7.318;2024-02-26T07:59:44;99131.94;;;8.01;100.00
3917;BME280;1973;50.518;7.318;2024-02-26T08:02:11;99141.44;;;7.98;100.00
3917;BME280;1973;50.518;7.318;2024-02-26T08:04:37;99139.19;;;7.95;100.00
3917;BME280;1973;50.518;7.318;2024-02-26T08:07:05;99151.25;;;7.94;100.00
3917;BME280;1973;50.518;7.318;2024-02-26T08:09:31;99146.22;;;7.91;100.00
3917;BME280;1973;50.518;7.318;2024-02-26T08:11:58;99159.47;;;7.94;100.00
3917;BME280;1973;50.518;7.318;2024-02-26T08:14:24;99158.97;;;7.97;100.00
3917;BME280;1973;50.518;7.318;2024-02-26T08:16:51;99149.91;;;7.97;100.00
3917;BME280;1973;50.518;7.318;2024-02-26T08:19:18;99159.34;;;8.01;100.00
3917;BME280;1973;50.518;7.318;2024-02-26T08:21:45;99155.63;;;8.07;100.00
3917;BME280;1973;50.518;7.318;2024-02-26T08:24:11;99158.72;;;8.10;100.00
3917;BME280;1973;50.518;7.318;2024-02-26T08:26:38;99166.22;;;8.15;100.00
3917;BME280;1973;50.518;7.318;2024-02-26T08:29:04;99175.88;;;8.17;100.00
3917;BME280;1973;50.518;7.318;2024-02-26T08:31:31;99174.09;;;8.11;100.00
3917;BME280;1973;50.518;7.318;2024-02-26T08:33:57;99181.47;;;8.11;100.00
3917;BME280;1973;50.518;7.318;2024-02-26T08:36:26;99204.09;;;8.06;100.00
3917;BME280;1973;50.518;7.318;2024-02-26T08:38:52;99197.69;;;8.01;100.00
3917;BME280;1973;50.518;7.318;2024-02-26T08:41:19;99198.41;;;7.96;100.00
3917;BME280;1973;50.518;7.318;2024-02-26T08:43:45;99202.47;;;7.94;100.00
3917;BME280;1973;50.518;7.318;2024-02-26T08:46:12;99206.63;;;7.96;100.00
3917;BME280;1973;50.518;7.318;2024-02-26T08:48:39;99211.03;;;7.97;100.00
3917;BME280;1973;50.518;7.318;2024-02-26T08:51:07;99207.81;;;8.00;100.00
3917;BME280;1973;50.518;7.318;2024-02-26T08:53:35;99213.78;;;7.97;100.00
3917;BME280;1973;50.518;7.318;2024-02-26T08:56:09;99215.41;;;7.98;100.00
3917;BME280;1973;50.518;7.318;2024-02-26T08:58:37;99214.97;;;8.01;100.00
3917;BME280;1973;50.518;7.318;2024-02-26T09:01:04;99218.66;;;8.07;100.00
3917;BME280;1973;50.518;7.318;2024-02-26T09:03:30;99213.53;;;8.10;100.00
3917;BME280;1973;50.518;7.318;2024-02-26T09:05:57;99218.28;;;8.15;100.00
3917;BME280;1973;50.518;7.318;2024-02-26T09:08:24;99228.56;;;8.19;100.00
3917;BME280;1973;50.518;7.318;2024-02-26T09:10:50;99230.94;;;8.16;100.00
3917;BME280;1973;50.518;7.318;2024-02-26T09:13:17;99235.44;;;8.10;100.00
3917;BME280;1973;50.518;7.318;2024-02-26T09:15:45;99232.97;;;8.09;100.00
3917;BME280;1973;50.518;7.318;2024-02-26T09:18:12;99235.09;;;8.07;100.00
3917;BME280;1973;50.518;7.318;2024-02-26T09:20:39;99239.25;;;8.09;100.00
3917;BME280;1973;50.518;7.318;2024-02-26T09:23:06;99234.53;;;8.16;100.00
3917;BME280;1973;50.518;7.318;2024-02-26T09:25:32;99233.56;;;8.22;100.00
3917;BME280;1973;50.518;7.318;2024-02-26T09:28:02;99237.03;;;8.29;100.00
3917;BME280;1973;50.518;7.318;2024-02-26T09:30:28;99234.28;;;8.29;100.00
3917;BME280;1973;50.518;7.318;2024-02-26T09:32:55;99234.88;;;8.31;100.00
3917;BME280;1973;50.518;7.318;2024-02-26T09:35:21;99248.00;;;8.29;100.00
3917;BME280;1973;50.518;7.318;2024-02-26T09:37:48;99248.19;;;8.28;100.00
3917;BME280;1973;50.518;7.318;2024-02-26T09:40:16;99250.34;;;8.26;100.00
3917;BME280;1973;50.518;7.318;2024-02-26T09:42:45;99250.75;;;8.29;100.00
3917;BME280;1973;50.518;7.318;2024-02-26T09:45:19;99246.09;;;8.30;100.00
3917;BME280;1973;50.518;7.318;2024-02-26T09:47:48;99254.69;;;8.34;100.00
3917;BME280;1973;50.518;7.318;2024-02-26T09:50:17;99253.13;;;8.38;100.00
3917;BME280;1973;50.518;7.318;2024-02-26T09:52:44;99256.56;;;8.45;100.00
3917;BME280;1973;50.518;7.318;2024-02-26T09:55:11;99250.72;;;8.53;100.00
3917;BME280;1973;50.518;7.318;2024-02-26T09:57:38;99252.97;;;8.56;100.00
3917;BME280;1973;50.518;7.318;2024-02-26T10:00:10;99256.66;;;8.61;100.00
3917;BME280;1973;50.518;7.318;2024-02-26T10:02:38;99262.41;;;8.60;100.00
3917;BME280;1973;50.518;7.318;2024-02-26T10:05:07;99271.81;;;8.64;100.00
3917;BME280;1973;50.518;7.318;2024-02-26T10:07:35;99269.06;;;8.64;100.00
3917;BME280;1973;50.518;7.318;2024-02-26T10:10:03;99259.75;;;8.65;100.00
3917;BME280;1973;50.518;7.318;2024-02-26T10:12:29;99264.44;;;8.64;100.00
3917;BME280;1973;50.518;7.318;2024-02-26T10:14:57;99273.47;;;8.65;100.00
3917;BME280;1973;50.518;7.318;2024-02-26T10:17:24;99263.09;;;8.67;100.00
3917;BME280;1973;50.518;7.318;2024-02-26T10:19:52;99270.72;;;8.76;100.00
3917;BME280;1973;50.518;7.318;2024-02-26T10:22:22;99282.66;;;8.82;100.00
3917;BME280;1973;50.518;7.318;2024-02-26T10:24:49;99276.09;;;8.83;100.00
3917;BME280;1973;50.518;7.318;2024-02-26T10:27:16;99283.84;;;8.86;100.00
3917;BME280;1973;50.518;7.318;2024-02-26T10:29:42;99284.41;;;8.88;100.00
3917;BME280;1973;50.518;7.318;2024-02-26T10:32:09;99283.06;;;8.91;100.00
3917;BME280;1973;50.518;7.318;2024-02-26T10:34:37;99285.38;;;8.94;100.00
3917;BME280;1973;50.518;7.318;2024-02-26T10:37:05;99298.69;;;9.02;100.00
3917;BME280;1973;50.518;7.318;2024-02-26T10:39:31;99298.22;;;9.05;100.00
3917;BME280;1973;50.518;7.318;2024-02-26T10:41:59;99301.06;;;9.10;100.00
3917;BME280;1973;50.518;7.318;2024-02-26T10:44:27;99292.09;;;9.14;100.00
3917;BME280;1973;50.518;7.318;2024-02-26T10:46:55;99301.41;;;9.13;100.00
3917;BME280;1973;50.518;7.318;2024-02-26T10:49:22;99307.00;;;9.18;100.00
3917;BME280;1973;50.518;7.318;2024-02-26T10:51:55;99311.50;;;9.24;100.00
3917;BME280;1973;50.518;7.318;2024-02-26T10:54:26;99319.25;;;9.27;100.00
3917;BME280;1973;50.518;7.318;2024-02-26T10:56:56;99316.28;;;9.29;100.00
3917;BME280;1973;50.518;7.318;2024-02-26T10:59:24;99326.78;;;9.32;100.00
3917;BME280;1973;50.518;7.318;2024-02-26T11:01:51;99326.91;;;9.25;100.00
3917;BME280;1973;50.518;7.318;2024-02-26T11:04:19;99340.06;;;9.23;100.00
3917;BME280;1973;50.518;7.318;2024-02-26T11:06:47;99342.47;;;9.20;100.00
3917;BME280;1973;50.518;7.318;2024-02-26T11:09:14;99352.00;;;9.17;100.00
3917;BME280;1973;50.518;7.318;2024-02-26T11:11:42;99348.19;;;9.18;100.00
3917;BME280;1973;50.518;7.318;2024-02-26T11:14:09;99341.84;;;9.18;100.00
3917;BME280;1973;50.518;7.318;2024-02-26T11:16:39;99345.22;;;9.20;100.00
3917;BME280;1973;50.518;7.318;2024-02-26T11:19:10;99354.38;;;9.25;100.00
3917;BME280;1973;50.518;7.318;2024-02-26T11:21:38;99359.75;;;9.20;100.00
3917;BME280;1973;50.518;7.318;2024-02-26T11:24:08;99360.72;;;9.26;100.00
3917;BME280;1973;50.518;7.318;2024-02-26T11:26:51;99361.78;;;9.25;100.00
3917;BME280;1973;50.518;7.318;2024-02-26T11:29:28;99350.31;;;9.28;100.00
3917;BME280;1973;50.518;7.318;2024-02-26T11:31:59;99347.91;;;9.32;100.00
3917;BME280;1973;50.518;7.318;2024-02-26T11:34:26;99348.75;;;9.32;100.00
3917;BME280;1973;50.518;7.318;2024-02-26T11:36:54;99357.31;;;9.36;100.00
3917;BME280;1973;50.518;7.318;2024-02-26T11:39:20;99354.59;;;9.36;100.00
3917;BME280;1973;50.518;7.318;2024-02-26T11:41:47;99357.59;;;9.34;100.00
3917;BME280;1973;50.518;7.318;2024-02-26T11:44:14;99356.50;;;9.35;100.00
3917;BME280;1973;50.518;7.318;2024-02-26T11:46:42;99356.03;;;9.38;100.00
3917;BME280;1973;50.518;7.318;2024-02-26T11:51:55;99351.47;;;9.44;100.00
3917;BME280;1973;50.518;7.318;2024-02-26T11:54:45;99348.81;;;9.49;100.00
3917;BME280;1973;50.518;7.318;2024-02-26T11:57:30;99352.16;;;9.51;100.00
3917;BME280;1973;50.518;7.318;2024-02-26T12:00:12;99353.34;;;9.55;100.00
3917;BME280;1973;50.518;7.318;2024-02-26T12:05:14;99358.78;;;9.66;100.00
3917;BME280;1973;50.518;7.318;2024-02-26T12:07:47;99361.88;;;9.70;100.00
3917;BME280;1973;50.518;7.318;2024-02-26T12:10:30;99369.88;;;9.71;100.00
3917;BME280;1973;50.518;7.318;2024-02-26T12:13:05;99374.53;;;9.71;100.00
3917;BME280;1973;50.518;7.318;2024-02-26T12:15:36;99370.00;;;9.65;100.00
3917;BME280;1973;50.518;7.318;2024-02-26T12:18:05;99373.50;;;9.60;100.00
3917;BME280;1973;50.518;7.318;2024-02-26T12:20:32;99386.97;;;9.62;100.00
3917;BME280;1973;50.518;7.318;2024-02-26T12:22:59;99384.84;;;9.64;100.00
3917;BME280;1973;50.518;7.318;2024-02-26T12:25:27;99385.69;;;9.64;100.00
3917;BME280;1973;50.518;7.318;2024-02-26T12:27:54;99393.16;;;9.69;100.00
3917;BME280;1973;50.518;7.318;2024-02-26T12:30:22;99388.84;;;9.73;100.00
3917;BME280;1973;50.518;7.318;2024-02-26T12:32:50;99389.53;;;9.80;100.00
3917;BME280;1973;50.518;7.318;2024-02-26T12:35:17;99394.88;;;9.87;100.00
3917;BME280;1973;50.518;7.318;2024-02-26T12:37:44;99398.56;;;9.92;100.00
3917;BME280;1973;50.518;7.318;2024-02-26T12:40:11;99405.66;;;9.88;100.00
3917;BME280;1973;50.518;7.318;2024-02-26T12:42:39;99412.97;;;9.83;100.00
3917;BME280;1973;50.518;7.318;2024-02-26T12:45:08;99409.63;;;9.81;100.00
3917;BME280;1973;50.518;7.318;2024-02-26T12:47:37;99415.97;;;9.81;100.00
3917;BME280;1973;50.518;7.318;2024-02-26T12:50:05;99414.88;;;9.82;100.00
3917;BME280;1973;50.518;7.318;2024-02-26T12:52:37;99419.88;;;9.85;100.00
3917;BME280;1973;50.518;7.318;2024-02-26T12:55:06;99425.72;;;9.89;100.00
3917;BME280;1973;50.518;7.318;2024-02-26T12:57:38;99432.91;;;9.90;100.00
3917;BME280;1973;50.518;7.318;2024-02-26T13:00:06;99434.53;;;9.91;100.00
3917;BME280;1973;50.518;7.318;2024-02-26T13:02:37;99425.22;;;9.92;100.00
3917;BME280;1973;50.518;7.318;2024-02-26T13:05:06;99438.75;;;9.93;100.00
3917;BME280;1973;50.518;7.318;2024-02-26T13:07:34;99435.16;;;9.93;100.00
3917;BME280;1973;50.518;7.318;2024-02-26T13:10:07;99434.88;;;9.94;100.00
3917;BME280;1973;50.518;7.318;2024-02-26T13:12:34;99437.97;;;9.98;100.00
3917;BME280;1973;50.518;7.318;2024-02-26T13:15:02;99442.41;;;9.99;100.00
3917;BME280;1973;50.518;7.318;2024-02-26T13:17:32;99444.59;;;9.97;100.00
3917;BME280;1973;50.518;7.318;2024-02-26T13:19:59;99446.50;;;9.96;100.00
3917;BME280;1973;50.518;7.318;2024-02-26T13:22:26;99451.38;;;9.94;100.00
3917;BME280;1973;50.518;7.318;2024-02-26T13:24:59;99456.88;;;9.94;100.00
3917;BME280;1973;50.518;7.318;2024-02-26T13:27:26;99459.06;;;9.92;100.00
3917;BME280;1973;50.518;7.318;2024-02-26T13:30:12;99455.22;;;9.93;100.00